CheckWX is a tool to help pilots better visualize weather data.  It is not intended as a substitute for an official pre-flight weather briefing.

01:25:26 UTC

CYVM METAR
Qikiqtarjuaq Airport
Qikiqtarjuaq, Canada
Current

25 mins ago

CYVM 240100Z AUTO 06003KT 9SM FEW130 M24/M27 A2953 RMK SLP002
Observed
Mar-24 @ 01:00 UTC
Wind
  • 060° at 3 KTS
Visibility
9 SM
Flight Rules
VFR
Cloud Levels
  • Few at 13,000' AGL
Temperature
-24°C / -11°F
Dewpoint
-27°C / -17°F
Humidity
76%
Altimeter
29.53" Hg
Pressure
1000.2 hPa
Previous

59 mins ago

CYVM 240026Z AUTO 00000KT 9SM FEW015 BKN130 M23/M25 A2953 RMK SLP001
Observed
Mar-24 @ 00:26 UTC
Visibility
9 SM
Flight Rules
VFR
Cloud Levels
  • Few at 1,500' AGL
  • Broken at 13,000' AGL
Temperature
-23°C / -9°F
Dewpoint
-25°C / -13°F
Humidity
84%
Altimeter
29.53" Hg
Pressure
1000.1 hPa
Previous

1 hour ago

CYVM 240017Z AUTO 00000KT 6SM -SN SCT017 SCT120 M23/M26 A2953 RMK SLP002
Observed
Mar-24 @ 00:17 UTC
Visibility
6 SM
Flight Rules
VFR
Conditions
Light Snow
Cloud Levels
  • Scattered at 1,700' AGL
  • Scattered at 12,000' AGL
Temperature
-23°C / -9°F
Dewpoint
-26°C / -15°F
Humidity
77%
Altimeter
29.53" Hg
Pressure
1000.2 hPa